sensor_id;sensor_type;location;lat;lon;timestamp;pressure;altitude;pressure_sealevel;temperature;humidity
2268;BME280;11052;43.338;25.502;2023-08-07T00:01:45;99742.03;;;20.56;100.00
2268;BME280;11052;43.338;25.502;2023-08-07T00:04:12;99752.34;;;20.48;100.00
2268;BME280;11052;43.338;25.502;2023-08-07T00:06:39;99755.22;;;20.45;100.00
2268;BME280;11052;43.338;25.502;2023-08-07T00:09:08;99763.25;;;20.44;100.00
2268;BME280;11052;43.338;25.502;2023-08-07T00:11:35;99768.41;;;20.45;100.00
2268;BME280;11052;43.338;25.502;2023-08-07T00:14:02;99767.94;;;20.40;100.00
2268;BME280;11052;43.338;25.502;2023-08-07T00:16:29;99766.59;;;20.35;100.00
2268;BME280;11052;43.338;25.502;2023-08-07T00:18:56;99772.94;;;20.32;100.00
2268;BME280;11052;43.338;25.502;2023-08-07T00:21:23;99771.50;;;20.28;100.00
2268;BME280;11052;43.338;25.502;2023-08-07T00:23:50;99772.31;;;20.28;100.00
2268;BME280;11052;43.338;25.502;2023-08-07T00:26:19;99783.09;;;20.25;100.00
2268;BME280;11052;43.338;25.502;2023-08-07T00:28:46;99781.53;;;20.23;100.00
2268;BME280;11052;43.338;25.502;2023-08-07T00:31:13;99780.81;;;20.21;100.00
2268;BME280;11052;43.338;25.502;2023-08-07T00:33:41;99781.41;;;20.13;100.00
2268;BME280;11052;43.338;25.502;2023-08-07T00:36:08;99780.09;;;20.08;100.00
2268;BME280;11052;43.338;25.502;2023-08-07T00:38:35;99775.06;;;20.05;100.00
2268;BME280;11052;43.338;25.502;2023-08-07T00:41:02;99780.09;;;20.08;100.00
2268;BME280;11052;43.338;25.502;2023-08-07T00:43:30;99779.50;;;20.04;100.00
2268;BME280;11052;43.338;25.502;2023-08-07T00:45:57;99779.38;;;20.06;100.00
2268;BME280;11052;43.338;25.502;2023-08-07T00:48:24;99775.56;;;20.10;100.00
2268;BME280;11052;43.338;25.502;2023-08-07T00:50:52;99777.00;;;20.03;100.00
2268;BME280;11052;43.338;25.502;2023-08-07T00:53:19;99785.25;;;19.98;100.00
2268;BME280;11052;43.338;25.502;2023-08-07T00:55:48;99790.38;;;20.00;100.00
2268;BME280;11052;43.338;25.502;2023-08-07T00:58:15;99790.03;;;19.93;100.00
2268;BME280;11052;43.338;25.502;2023-08-07T01:00:44;99784.91;;;19.91;100.00
2268;BME280;11052;43.338;25.502;2023-08-07T01:03:12;99798.19;;;19.90;100.00
2268;BME280;11052;43.338;25.502;2023-08-07T01:05:40;99796.13;;;19.93;100.00
2268;BME280;11052;43.338;25.502;2023-08-07T01:08:07;99799.47;;;19.95;100.00
2268;BME280;11052;43.338;25.502;2023-08-07T01:10:42;99801.75;;;19.89;100.00
2268;BME280;11052;43.338;25.502;2023-08-07T01:13:18;99804.50;;;19.87;100.00
2268;BME280;11052;43.338;25.502;2023-08-07T01:15:49;99803.31;;;19.80;100.00
2268;BME280;11052;43.338;25.502;2023-08-07T01:18:19;99811.31;;;19.79;100.00
2268;BME280;11052;43.338;25.502;2023-08-07T01:20:47;99806.88;;;19.79;100.00
2268;BME280;11052;43.338;25.502;2023-08-07T01:23:15;99810.59;;;19.77;100.00
2268;BME280;11052;43.338;25.502;2023-08-07T01:25:43;99808.91;;;19.76;100.00
2268;BME280;11052;43.338;25.502;2023-08-07T01:28:17;99814.25;;;19.63;100.00
2268;BME280;11052;43.338;25.502;2023-08-07T01:30:49;99814.13;;;19.64;100.00
2268;BME280;11052;43.338;25.502;2023-08-07T01:33:21;99832.78;;;19.61;100.00
2268;BME280;11052;43.338;25.502;2023-08-07T01:35:53;99836.97;;;19.64;100.00
2268;BME280;11052;43.338;25.502;2023-08-07T01:38:25;99839.22;;;19.57;100.00
2268;BME280;11052;43.338;25.502;2023-08-07T01:40:53;99841.53;;;19.49;100.00
2268;BME280;11052;43.338;25.502;2023-08-07T01:43:21;99838.81;;;19.51;100.00
2268;BME280;11052;43.338;25.502;2023-08-07T01:45:48;99845.84;;;19.50;100.00
2268;BME280;11052;43.338;25.502;2023-08-07T01:48:15;99840.94;;;19.46;100.00
2268;BME280;11052;43.338;25.502;2023-08-07T01:50:42;99835.41;;;19.38;100.00
2268;BME280;11052;43.338;25.502;2023-08-07T01:53:09;99836.13;;;19.40;100.00
2268;BME280;11052;43.338;25.502;2023-08-07T01:55:37;99841.63;;;19.37;100.00
2268;BME280;11052;43.338;25.502;2023-08-07T01:58:04;99839.53;;;19.29;100.00
2268;BME280;11052;43.338;25.502;2023-08-07T02:00:32;99849.00;;;19.31;100.00
2268;BME280;11052;43.338;25.502;2023-08-07T02:02:59;99843.25;;;19.26;100.00
2268;BME280;11052;43.338;25.502;2023-08-07T02:05:26;99847.31;;;19.30;100.00
2268;BME280;11052;43.338;25.502;2023-08-07T02:07:53;99853.34;;;19.20;100.00
2268;BME280;11052;43.338;25.502;2023-08-07T02:10:22;99835.28;;;19.15;100.00
2268;BME280;11052;43.338;25.502;2023-08-07T02:12:50;99845.13;;;19.24;100.00
2268;BME280;11052;43.338;25.502;2023-08-07T02:15:17;99835.28;;;19.15;100.00
2268;BME280;11052;43.338;25.502;2023-08-07T02:17:44;99833.50;;;19.16;100.00
2268;BME280;11052;43.338;25.502;2023-08-07T02:20:11;99841.50;;;19.14;100.00
2268;BME280;11052;43.338;25.502;2023-08-07T02:22:39;99834.91;;;19.09;100.00
2268;BME280;11052;43.338;25.502;2023-08-07T02:25:06;99837.09;;;19.15;100.00
2268;BME280;11052;43.338;25.502;2023-08-07T02:27:33;99834.56;;;19.13;100.00
2268;BME280;11052;43.338;25.502;2023-08-07T02:30:02;99861.69;;;19.14;100.00
2268;BME280;11052;43.338;25.502;2023-08-07T02:32:29;99878.41;;;19.13;100.00
2268;BME280;11052;43.338;25.502;2023-08-07T02:34:56;99885.00;;;19.18;100.00
2268;BME280;11052;43.338;25.502;2023-08-07T02:37:23;99894.28;;;19.11;100.00
2268;BME280;11052;43.338;25.502;2023-08-07T02:39:51;99882.72;;;19.14;100.00
2268;BME280;11052;43.338;25.502;2023-08-07T02:42:19;99887.56;;;19.07;100.00
2268;BME280;11052;43.338;25.502;2023-08-07T02:44:46;99884.72;;;19.10;100.00
2268;BME280;11052;43.338;25.502;2023-08-07T02:47:14;99883.09;;;18.96;100.00
2268;BME280;11052;43.338;25.502;2023-08-07T02:49:41;99882.66;;;19.03;100.00
2268;BME280;11052;43.338;25.502;2023-08-07T02:52:08;99894.75;;;19.05;100.00
2268;BME280;11052;43.338;25.502;2023-08-07T02:54:35;99888.53;;;19.06;100.00
2268;BME280;11052;43.338;25.502;2023-08-07T02:57:03;99889.09;;;18.98;100.00
2268;BME280;11052;43.338;25.502;2023-08-07T02:59:30;99889.72;;;19.02;100.00
2268;BME280;11052;43.338;25.502;2023-08-07T03:01:57;99893.28;;;19.01;100.00
2268;BME280;11052;43.338;25.502;2023-08-07T03:04:25;99892.66;;;18.97;100.00
2268;BME280;11052;43.338;25.502;2023-08-07T03:06:52;99897.50;;;18.91;100.00
2268;BME280;11052;43.338;25.502;2023-08-07T03:09:20;99898.25;;;18.93;100.00
2268;BME280;11052;43.338;25.502;2023-08-07T03:11:47;99892.69;;;18.85;100.00
2268;BME280;11052;43.338;25.502;2023-08-07T03:14:14;99903.72;;;18.90;100.00
2268;BME280;11052;43.338;25.502;2023-08-07T03:16:41;99898.16;;;18.82;100.00
2268;BME280;11052;43.338;25.502;2023-08-07T03:19:08;99902.38;;;18.72;100.00
2268;BME280;11052;43.338;25.502;2023-08-07T03:21:36;99909.41;;;18.71;100.00
2268;BME280;11052;43.338;25.502;2023-08-07T03:24:04;99911.75;;;18.63;100.00
2268;BME280;11052;43.338;25.502;2023-08-07T03:26:31;99924.03;;;18.62;100.00
2268;BME280;11052;43.338;25.502;2023-08-07T03:28:59;99917.00;;;18.63;100.00
2268;BME280;11052;43.338;25.502;2023-08-07T03:31:26;99922.34;;;18.61;100.00
2268;BME280;11052;43.338;25.502;2023-08-07T03:33:53;99915.19;;;18.63;100.00
2268;BME280;11052;43.338;25.502;2023-08-07T03:36:21;99914.03;;;18.55;100.00
2268;BME280;11052;43.338;25.502;2023-08-07T03:38:50;99922.00;;;18.53;100.00
2268;BME280;11052;43.338;25.502;2023-08-07T03:41:17;99920.31;;;18.52;100.00
2268;BME280;11052;43.338;25.502;2023-08-07T03:43:44;99922.41;;;18.60;100.00
2268;BME280;11052;43.338;25.502;2023-08-07T03:46:11;99915.59;;;18.57;100.00
2268;BME280;11052;43.338;25.502;2023-08-07T03:48:38;99915.19;;;18.51;100.00
2268;BME280;11052;43.338;25.502;2023-08-07T03:51:06;99909.50;;;18.57;100.00
2268;BME280;11052;43.338;25.502;2023-08-07T03:53:34;99906.38;;;18.64;100.00
2268;BME280;11052;43.338;25.502;2023-08-07T03:56:02;99905.53;;;18.64;100.00
2268;BME280;11052;43.338;25.502;2023-08-07T03:58:29;99902.38;;;18.59;100.00
2268;BME280;11052;43.338;25.502;2023-08-07T04:00:57;99904.25;;;18.57;100.00
2268;BME280;11052;43.338;25.502;2023-08-07T04:03:24;99902.50;;;18.70;100.00
2268;BME280;11052;43.338;25.502;2023-08-07T04:05:55;99898.28;;;18.67;100.00
2268;BME280;11052;43.338;25.502;2023-08-07T04:08:23;99906.78;;;18.71;100.00
2268;BME280;11052;43.338;25.502;2023-08-07T04:11:00;99908.38;;;18.74;100.00
2268;BME280;11052;43.338;25.502;2023-08-07T04:13:29;99905.31;;;18.80;100.00
2268;BME280;11052;43.338;25.502;2023-08-07T04:15:56;99900.56;;;18.85;100.00
2268;BME280;11052;43.338;25.502;2023-08-07T04:18:24;99908.34;;;18.86;100.00
2268;BME280;11052;43.338;25.502;2023-08-07T04:20:52;99905.47;;;19.02;100.00
2268;BME280;11052;43.338;25.502;2023-08-07T04:23:19;99911.78;;;18.99;100.00
2268;BME280;11052;43.338;25.502;2023-08-07T04:25:47;99908.94;;;19.03;100.00
2268;BME280;11052;43.338;25.502;2023-08-07T04:28:14;99908.25;;;19.12;100.00
2268;BME280;11052;43.338;25.502;2023-08-07T04:30:43;99905.59;;;19.24;100.00
2268;BME280;11052;43.338;25.502;2023-08-07T04:33:10;99909.97;;;19.37;100.00
2268;BME280;11052;43.338;25.502;2023-08-07T04:35:38;99915.88;;;19.64;100.00
2268;BME280;11052;43.338;25.502;2023-08-07T04:38:05;99915.84;;;19.88;100.00
2268;BME280;11052;43.338;25.502;2023-08-07T04:40:32;99908.47;;;20.15;100.00
2268;BME280;11052;43.338;25.502;2023-08-07T04:42:59;99906.88;;;20.59;100.00
2268;BME280;11052;43.338;25.502;2023-08-07T04:45:27;99906.72;;;20.94;100.00
2268;BME280;11052;43.338;25.502;2023-08-07T04:47:56;99907.91;;;21.12;100.00
2268;BME280;11052;43.338;25.502;2023-08-07T04:50:23;99916.03;;;21.32;100.00
2268;BME280;11052;43.338;25.502;2023-08-07T04:52:50;99927.28;;;21.45;100.00
2268;BME280;11052;43.338;25.502;2023-08-07T04:55:17;99922.59;;;21.69;100.00
2268;BME280;11052;43.338;25.502;2023-08-07T04:57:44;99928.38;;;21.95;100.00
2268;BME280;11052;43.338;25.502;2023-08-07T05:00:12;99930.34;;;22.14;100.00
2268;BME280;11052;43.338;25.502;2023-08-07T05:02:40;99932.28;;;22.33;100.00
2268;BME280;11052;43.338;25.502;2023-08-07T05:05:09;99936.53;;;22.54;100.00
2268;BME280;11052;43.338;25.502;2023-08-07T05:07:36;99933.94;;;22.64;100.00
2268;BME280;11052;43.338;25.502;2023-08-07T05:10:03;99941.19;;;22.93;100.00
2268;BME280;11052;43.338;25.502;2023-08-07T05:12:30;99950.34;;;23.19;100.00
2268;BME280;11052;43.338;25.502;2023-08-07T05:14:57;99949.41;;;23.39;100.00
2268;BME280;11052;43.338;25.502;2023-08-07T05:17:24;99957.59;;;23.46;100.00
2268;BME280;11052;43.338;25.502;2023-08-07T05:19:51;99958.28;;;23.29;100.00
2268;BME280;11052;43.338;25.502;2023-08-07T05:22:20;99957.66;;;23.56;100.00
2268;BME280;11052;43.338;25.502;2023-08-07T05:24:47;99954.75;;;23.68;100.00
2268;BME280;11052;43.338;25.502;2023-08-07T05:27:14;99957.41;;;23.88;100.00
2268;BME280;11052;43.338;25.502;2023-08-07T05:29:41;99965.06;;;24.19;100.00
2268;BME280;11052;43.338;25.502;2023-08-07T05:32:10;99971.72;;;24.33;100.00
2268;BME280;11052;43.338;25.502;2023-08-07T05:34:37;99966.59;;;24.22;100.00
2268;BME280;11052;43.338;25.502;2023-08-07T05:37:04;99960.31;;;24.23;100.00
2268;BME280;11052;43.338;25.502;2023-08-07T05:39:34;99960.25;;;24.52;100.00
2268;BME280;11052;43.338;25.502;2023-08-07T05:42:01;99972.22;;;24.66;100.00
2268;BME280;11052;43.338;25.502;2023-08-07T05:44:29;99975.06;;;24.92;100.00
2268;BME280;11052;43.338;25.502;2023-08-07T05:46:56;99972.50;;;25.09;100.00
2268;BME280;11052;43.338;25.502;2023-08-07T05:49:23;99967.59;;;25.32;100.00
2268;BME280;11052;43.338;25.502;2023-08-07T05:51:50;99967.50;;;25.52;100.00
2268;BME280;11052;43.338;25.502;2023-08-07T05:54:17;99975.06;;;25.74;100.00
2268;BME280;11052;43.338;25.502;2023-08-07T05:56:45;99979.47;;;25.83;100.00
2268;BME280;11052;43.338;25.502;2023-08-07T05:59:13;99983.25;;;25.80;100.00
2268;BME280;11052;43.338;25.502;2023-08-07T06:01:40;99987.59;;;25.82;100.00
2268;BME280;11052;43.338;25.502;2023-08-07T06:04:07;99972.31;;;25.84;100.00
2268;BME280;11052;43.338;25.502;2023-08-07T06:06:35;99971.03;;;25.88;100.00
2268;BME280;11052;43.338;25.502;2023-08-07T06:09:05;99967.16;;;26.00;100.00
2268;BME280;11052;43.338;25.502;2023-08-07T06:11:32;99969.81;;;26.00;100.00
2268;BME280;11052;43.338;25.502;2023-08-07T06:14:01;99969.84;;;26.08;100.00
2268;BME280;11052;43.338;25.502;2023-08-07T06:16:28;99968.03;;;26.08;100.00
2268;BME280;11052;43.338;25.502;2023-08-07T06:18:55;99969.19;;;26.06;100.00
2268;BME280;11052;43.338;25.502;2023-08-07T06:21:22;99976.09;;;26.34;100.00
2268;BME280;11052;43.338;25.502;2023-08-07T06:23:49;99969.94;;;26.60;100.00
2268;BME280;11052;43.338;25.502;2023-08-07T06:26:17;99977.34;;;26.74;100.00
2268;BME280;11052;43.338;25.502;2023-08-07T06:28:44;99980.41;;;26.95;100.00
2268;BME280;11052;43.338;25.502;2023-08-07T06:31:13;99992.97;;;27.03;100.00
2268;BME280;11052;43.338;25.502;2023-08-07T06:33:40;99983.97;;;27.04;100.00
2268;BME280;11052;43.338;25.502;2023-08-07T06:36:07;99989.69;;;27.17;93.73
2268;BME280;11052;43.338;25.502;2023-08-07T06:38:35;99989.53;;;27.19;90.76
2268;BME280;11052;43.338;25.502;2023-08-07T06:41:02;99992.03;;;27.20;82.63
2268;BME280;11052;43.338;25.502;2023-08-07T06:43:29;99987.81;;;27.52;77.33
2268;BME280;11052;43.338;25.502;2023-08-07T06:45:57;99994.06;;;27.68;72.12
2268;BME280;11052;43.338;25.502;2023-08-07T06:48:25;100000.38;;;27.67;70.89
2268;BME280;11052;43.338;25.502;2023-08-07T06:50:52;99991.03;;;27.63;69.88
2268;BME280;11052;43.338;25.502;2023-08-07T06:53:19;99999.72;;;27.65;71.42
2268;BME280;11052;43.338;25.502;2023-08-07T06:55:47;100006.88;;;27.97;70.99
2268;BME280;11052;43.338;25.502;2023-08-07T06:58:14;100013.03;;;27.90;66.15
2268;BME280;11052;43.338;25.502;2023-08-07T07:00:41;100012.13;;;27.57;65.35
2268;BME280;11052;43.338;25.502;2023-08-07T07:03:08;100008.69;;;27.64;62.84
2268;BME280;11052;43.338;25.502;2023-08-07T07:05:37;100009.56;;;28.05;65.53
2268;BME280;11052;43.338;25.502;2023-08-07T07:08:04;100018.56;;;28.13;63.52
2268;BME280;11052;43.338;25.502;2023-08-07T07:10:31;100021.72;;;28.08;62.01
2268;BME280;11052;43.338;25.502;2023-08-07T07:12:58;100026.06;;;28.17;63.98
2268;BME280;11052;43.338;25.502;2023-08-07T07:15:25;100033.28;;;28.33;60.38
2268;BME280;11052;43.338;25.502;2023-08-07T07:17:52;100039.38;;;28.09;61.71
2268;BME280;11052;43.338;25.502;2023-08-07T07:20:20;100042.38;;;28.14;59.93
2268;BME280;11052;43.338;25.502;2023-08-07T07:22:48;100038.44;;;28.26;62.14
2268;BME280;11052;43.338;25.502;2023-08-07T07:25:15;100032.94;;;28.28;61.87
2268;BME280;11052;43.338;25.502;2023-08-07T07:27:42;100026.09;;;28.42;64.31
2268;BME280;11052;43.338;25.502;2023-08-07T07:30:10;100030.94;;;28.30;58.65
2268;BME280;11052;43.338;25.502;2023-08-07T07:32:37;100035.94;;;28.57;59.30
2268;BME280;11052;43.338;25.502;2023-08-07T07:35:05;100029.94;;;28.55;60.97
2268;BME280;11052;43.338;25.502;2023-08-07T07:37:32;100022.59;;;28.57;60.03
2268;BME280;11052;43.338;25.502;2023-08-07T07:40:01;100027.72;;;28.67;59.22
2268;BME280;11052;43.338;25.502;2023-08-07T07:42:28;100030.16;;;29.09;60.68
2268;BME280;11052;43.338;25.502;2023-08-07T07:44:55;100033.84;;;29.00;58.70
2268;BME280;11052;43.338;25.502;2023-08-07T07:47:22;100048.03;;;28.92;63.28
2268;BME280;11052;43.338;25.502;2023-08-07T07:50:04;100047.94;;;29.25;56.94
2268;BME280;11052;43.338;25.502;2023-08-07T07:52:32;100047.16;;;29.16;56.70
2268;BME280;11052;43.338;25.502;2023-08-07T07:54:59;100055.66;;;29.12;58.16
2268;BME280;11052;43.338;25.502;2023-08-07T07:57:27;100054.66;;;29.13;57.92
2268;BME280;11052;43.338;25.502;2023-08-07T07:59:54;100050.84;;;29.07;55.97
2268;BME280;11052;43.338;25.502;2023-08-07T08:02:22;100050.78;;;29.23;56.87
2268;BME280;11052;43.338;25.502;2023-08-07T08:04:50;100058.50;;;29.57;56.99
2268;BME280;11052;43.338;25.502;2023-08-07T08:07:18;100053.56;;;29.46;57.27
2268;BME280;11052;43.338;25.502;2023-08-07T08:09:45;100045.97;;;29.58;59.18
2268;BME280;11052;43.338;25.502;2023-08-07T08:12:12;100049.25;;;29.68;55.85
2268;BME280;11052;43.338;25.502;2023-08-07T08:14:41;100048.25;;;29.38;54.87
2268;BME280;11052;43.338;25.502;2023-08-07T08:17:08;100040.59;;;29.27;58.08
2268;BME280;11052;43.338;25.502;2023-08-07T08:19:35;100053.69;;;29.53;55.93
2268;BME280;11052;43.338;25.502;2023-08-07T08:22:02;100027.94;;;29.60;57.63
2268;BME280;11052;43.338;25.502;2023-08-07T08:24:29;100034.03;;;29.77;53.64
2268;BME280;11052;43.338;25.502;2023-08-07T08:26:57;100038.13;;;29.87;54.87
2268;BME280;11052;43.338;25.502;2023-08-07T08:29:24;100044.06;;;29.75;53.35
2268;BME280;11052;43.338;25.502;2023-08-07T08:31:55;100042.50;;;29.80;54.52
2268;BME280;11052;43.338;25.502;2023-08-07T08:34:22;100045.13;;;29.88;52.75
2268;BME280;11052;43.338;25.502;2023-08-07T08:36:49;100049.16;;;29.84;52.64
2268;BME280;11052;43.338;25.502;2023-08-07T08:39:16;100041.06;;;29.69;53.40
2268;BME280;11052;43.338;25.502;2023-08-07T08:41:46;100045.97;;;29.58;53.07
2268;BME280;11052;43.338;25.502;2023-08-07T08:44:13;100046.13;;;29.25;55.00
2268;BME280;11052;43.338;25.502;2023-08-07T08:46:42;100040.13;;;29.15;52.24
2268;BME280;11052;43.338;25.502;2023-08-07T08:49:10;100039.63;;;29.20;52.82
2268;BME280;11052;43.338;25.502;2023-08-07T08:51:39;100041.28;;;29.21;52.01
2268;BME280;11052;43.338;25.502;2023-08-07T08:54:06;100038.72;;;29.44;54.96
2268;BME280;11052;43.338;25.502;2023-08-07T08:56:35;100043.47;;;29.56;52.79
2268;BME280;11052;43.338;25.502;2023-08-07T08:59:03;100035.91;;;29.68;51.77
2268;BME280;11052;43.338;25.502;2023-08-07T09:01:30;100047.38;;;29.77;51.18
2268;BME280;11052;43.338;25.502;2023-08-07T09:03:58;100046.19;;;30.10;54.32
2268;BME280;11052;43.338;25.502;2023-08-07T09:06:29;100049.03;;;30.31;50.59
2268;BME280;11052;43.338;25.502;2023-08-07T09:08:58;100038.19;;;30.10;51.80
2268;BME280;11052;43.338;25.502;2023-08-07T09:11:28;100053.75;;;30.29;49.94
2268;BME280;11052;43.338;25.502;2023-08-07T09:13:56;100037.09;;;30.19;50.19
2268;BME280;11052;43.338;25.502;2023-08-07T09:16:24;100037.28;;;30.18;50.82
2268;BME280;11052;43.338;25.502;2023-08-07T09:18:52;100031.47;;;30.14;48.38
2268;BME280;11052;43.338;25.502;2023-08-07T09:21:21;100038.22;;;30.02;49.09
2268;BME280;11052;43.338;25.502;2023-08-07T09:23:49;100027.09;;;29.90;49.36
2268;BME280;11052;43.338;25.502;2023-08-07T09:26:22;100026.38;;;29.96;48.88
2268;BME280;11052;43.338;25.502;2023-08-07T09:28:51;100032.22;;;30.23;50.12
2268;BME280;11052;43.338;25.502;2023-08-07T09:31:18;100034.97;;;30.15;48.52
2268;BME280;11052;43.338;25.502;2023-08-07T09:33:47;100034.06;;;30.22;47.95
2268;BME280;11052;43.338;25.502;2023-08-07T09:36:14;100027.34;;;30.26;48.81
2268;BME280;11052;43.338;25.502;2023-08-07T09:38:42;100027.25;;;30.34;47.47
2268;BME280;11052;43.338;25.502;2023-08-07T09:41:11;100035.84;;;30.07;46.57
2268;BME280;11052;43.338;25.502;2023-08-07T09:43:38;100024.50;;;30.05;48.85
2268;BME280;11052;43.338;25.502;2023-08-07T09:46:06;100024.97;;;30.31;48.30
2268;BME280;11052;43.338;25.502;2023-08-07T09:48:39;100028.13;;;30.50;48.21
2268;BME280;11052;43.338;25.502;2023-08-07T09:51:06;100014.75;;;30.50;47.15
2268;BME280;11052;43.338;25.502;2023-08-07T09:53:33;100022.56;;;30.74;48.77
2268;BME280;11052;43.338;25.502;2023-08-07T09:56:01;100022.50;;;30.97;47.19
2268;BME280;11052;43.338;25.502;2023-08-07T09:58:30;100026.09;;;31.04;47.52
2268;BME280;11052;43.338;25.502;2023-08-07T10:01:02;100034.59;;;31.08;44.88
2268;BME280;11052;43.338;25.502;2023-08-07T10:03:29;100037.00;;;31.03;45.49
2268;BME280;11052;43.338;25.502;2023-08-07T10:05:57;100030.88;;;30.79;45.32
2268;BME280;11052;43.338;25.502;2023-08-07T10:08:24;100043.22;;;30.65;45.62
2268;BME280;11052;43.338;25.502;2023-08-07T10:10:52;100028.06;;;30.58;45.77
2268;BME280;11052;43.338;25.502;2023-08-07T10:13:19;100032.81;;;30.71;45.78
2268;BME280;11052;43.338;25.502;2023-08-07T10:15:48;100036.75;;;30.60;46.96
2268;BME280;11052;43.338;25.502;2023-08-07T10:18:16;100032.06;;;30.77;43.76
2268;BME280;11052;43.338;25.502;2023-08-07T10:20:43;100032.47;;;30.88;45.06
2268;BME280;11052;43.338;25.502;2023-08-07T10:23:11;100025.44;;;30.50;45.17
2268;BME280;11052;43.338;25.502;2023-08-07T10:25:43;100023.72;;;30.57;44.99
2268;BME280;11052;43.338;25.502;2023-08-07T10:28:16;100033.28;;;30.74;47.18
2268;BME280;11052;43.338;25.502;2023-08-07T10:30:43;100024.63;;;30.87;45.45
2268;BME280;11052;43.338;25.502;2023-08-07T10:33:13;100029.69;;;30.96;45.81
2268;BME280;11052;43.338;25.502;2023-08-07T10:35:45;100018.16;;;30.81;44.27
2268;BME280;11052;43.338;25.502;2023-08-07T10:38:13;100028.69;;;30.97;44.81
2268;BME280;11052;43.338;25.502;2023-08-07T10:41:01;100029.13;;;30.86;44.02
2268;BME280;11052;43.338;25.502;2023-08-07T10:43:29;100025.06;;;30.90;44.51
2268;BME280;11052;43.338;25.502;2023-08-07T10:46:08;100014.72;;;30.73;45.96
2268;BME280;11052;43.338;25.502;2023-08-07T10:48:41;100015.28;;;30.97;44.89
2268;BME280;11052;43.338;25.502;2023-08-07T10:51:12;100010.94;;;30.96;45.40
2268;BME280;11052;43.338;25.502;2023-08-07T10:53:41;100008.19;;;31.19;44.55
2268;BME280;11052;43.338;25.502;2023-08-07T10:56:10;100001.00;;;31.20;44.55
2268;BME280;11052;43.338;25.502;2023-08-07T10:58:38;100000.00;;;31.42;44.14
2268;BME280;11052;43.338;25.502;2023-08-07T11:01:20;99995.44;;;31.57;43.65
2268;BME280;11052;43.338;25.502;2023-08-07T11:03:51;99998.19;;;31.64;42.78
2268;BME280;11052;43.338;25.502;2023-08-07T11:06:22;99997.50;;;31.41;42.77
2268;BME280;11052;43.338;25.502;2023-08-07T11:08:50;99993.91;;;31.48;43.40
2268;BME280;11052;43.338;25.502;2023-08-07T11:11:17;99991.97;;;31.42;44.41
2268;BME280;11052;43.338;25.502;2023-08-07T11:13:45;99995.66;;;31.41;43.71
2268;BME280;11052;43.338;25.502;2023-08-07T11:16:12;99993.00;;;31.26;42.54
2268;BME280;11052;43.338;25.502;2023-08-07T11:18:39;99996.44;;;31.20;42.72
2268;BME280;11052;43.338;25.502;2023-08-07T11:21:09;100001.94;;;31.48;43.71
2268;BME280;11052;43.338;25.502;2023-08-07T11:23:37;100005.63;;;31.47;42.14
2268;BME280;11052;43.338;25.502;2023-08-07T11:26:04;99995.06;;;31.60;43.24
2268;BME280;11052;43.338;25.502;2023-08-07T11:28:31;99992.50;;;31.52;42.54
2268;BME280;11052;43.338;25.502;2023-08-07T11:30:58;99995.09;;;31.46;42.08
2268;BME280;11052;43.338;25.502;2023-08-07T11:33:26;99992.44;;;31.46;42.01
2268;BME280;11052;43.338;25.502;2023-08-07T11:35:54;99993.53;;;31.51;41.73
2268;BME280;11052;43.338;25.502;2023-08-07T11:38:33;100000.63;;;31.59;41.39
2268;BME280;11052;43.338;25.502;2023-08-07T11:41:01;99994.59;;;31.72;42.25
2268;BME280;11052;43.338;25.502;2023-08-07T11:43:29;99993.03;;;31.62;42.26
2268;BME280;11052;43.338;25.502;2023-08-07T11:45:57;99993.06;;;31.48;40.66
2268;BME280;11052;43.338;25.502;2023-08-07T11:48:25;99988.34;;;31.50;41.82
2268;BME280;11052;43.338;25.502;2023-08-07T11:50:53;99994.22;;;31.75;40.95
2268;BME280;11052;43.338;25.502;2023-08-07T11:53:21;99995.97;;;31.68;40.41
2268;BME280;11052;43.338;25.502;2023-08-07T11:55:56;99981.38;;;31.70;38.07
2268;BME280;11052;43.338;25.502;2023-08-07T11:58:34;99974.94;;;31.86;40.19
2268;BME280;11052;43.338;25.502;2023-08-07T12:01:04;99991.91;;;31.72;38.29
2268;BME280;11052;43.338;25.502;2023-08-07T12:03:32;99984.75;;;31.43;38.84
2268;BME280;11052;43.338;25.502;2023-08-07T12:06:03;99985.63;;;31.65;40.04
2268;BME280;11052;43.338;25.502;2023-08-07T12:08:33;99983.38;;;31.83;40.52
2268;BME280;11052;43.338;25.502;2023-08-07T12:11:04;99974.94;;;31.86;37.64
2268;BME280;11052;43.338;25.502;2023-08-07T12:13:32;99965.13;;;31.72;40.22
2268;BME280;11052;43.338;25.502;2023-08-07T12:16:01;99972.06;;;31.87;39.37
2268;BME280;11052;43.338;25.502;2023-08-07T12:18:30;99975.66;;;31.94;38.44
2268;BME280;11052;43.338;25.502;2023-08-07T12:20:59;99975.91;;;32.00;38.24
2268;BME280;11052;43.338;25.502;2023-08-07T12:23:27;99959.06;;;31.84;38.42
2268;BME280;11052;43.338;25.502;2023-08-07T12:25:54;99981.13;;;31.50;39.24
2268;BME280;11052;43.338;25.502;2023-08-07T12:28:23;99980.03;;;31.45;38.49
2268;BME280;11052;43.338;25.502;2023-08-07T12:30:51;99981.25;;;31.42;37.93
2268;BME280;11052;43.338;25.502;2023-08-07T12:33:18;99981.28;;;31.27;38.91
2268;BME280;11052;43.338;25.502;2023-08-07T12:35:46;99982.63;;;31.53;40.29
2268;BME280;11052;43.338;25.502;2023-08-07T12:38:13;99988.94;;;31.67;38.59
2268;BME280;11052;43.338;25.502;2023-08-07T12:40:41;99988.03;;;31.59;39.12
2268;BME280;11052;43.338;25.502;2023-08-07T12:43:08;99983.19;;;31.48;39.11
2268;BME280;11052;43.338;25.502;2023-08-07T12:45:37;99982.81;;;31.51;40.43
2268;BME280;11052;43.338;25.502;2023-08-07T12:48:04;99990.06;;;31.72;38.39
2268;BME280;11052;43.338;25.502;2023-08-07T12:50:32;99988.22;;;31.73;37.82
2268;BME280;11052;43.338;25.502;2023-08-07T12:53:00;99977.50;;;31.58;37.59
2268;BME280;11052;43.338;25.502;2023-08-07T12:55:27;99980.75;;;31.53;37.71
2268;BME280;11052;43.338;25.502;2023-08-07T12:57:55;99980.66;;;31.61;38.54